sensor_id;sensor_type;location;lat;lon;timestamp;temperature;humidity
10276;DHT22;5183;51.190;6.820;2023-02-01T00:01:46;5.70;99.90
10276;DHT22;5183;51.190;6.820;2023-02-01T00:04:13;5.80;99.90
10276;DHT22;5183;51.190;6.820;2023-02-01T00:06:40;5.90;99.90
10276;DHT22;5183;51.190;6.820;2023-02-01T00:09:07;5.80;99.90
10276;DHT22;5183;51.190;6.820;2023-02-01T00:11:34;5.90;99.90
10276;DHT22;5183;51.190;6.820;2023-02-01T00:14:01;5.90;99.90
10276;DHT22;5183;51.190;6.820;2023-02-01T00:16:29;5.90;99.90
10276;DHT22;5183;51.190;6.820;2023-02-01T00:19:00;5.90;99.90
10276;DHT22;5183;51.190;6.820;2023-02-01T00:21:28;5.90;99.90
10276;DHT22;5183;51.190;6.820;2023-02-01T00:23:55;5.90;99.90
10276;DHT22;5183;51.190;6.820;2023-02-01T00:26:27;5.90;99.90
10276;DHT22;5183;51.190;6.820;2023-02-01T00:28:56;5.90;99.90
10276;DHT22;5183;51.190;6.820;2023-02-01T00:31:23;6.00;99.90
10276;DHT22;5183;51.190;6.820;2023-02-01T00:33:50;5.90;99.90
10276;DHT22;5183;51.190;6.820;2023-02-01T00:36:18;5.90;99.90
10276;DHT22;5183;51.190;6.820;2023-02-01T00:38:45;5.90;99.90
10276;DHT22;5183;51.190;6.820;2023-02-01T00:41:13;5.90;99.90
10276;DHT22;5183;51.190;6.820;2023-02-01T00:43:41;6.00;99.90
10276;DHT22;5183;51.190;6.820;2023-02-01T00:46:08;6.00;99.90
10276;DHT22;5183;51.190;6.820;2023-02-01T00:48:36;6.00;99.90
10276;DHT22;5183;51.190;6.820;2023-02-01T00:51:04;6.00;99.90
10276;DHT22;5183;51.190;6.820;2023-02-01T00:53:33;6.10;99.90
10276;DHT22;5183;51.190;6.820;2023-02-01T00:56:00;6.00;99.90
10276;DHT22;5183;51.190;6.820;2023-02-01T00:58:27;6.00;99.90
10276;DHT22;5183;51.190;6.820;2023-02-01T01:01:01;5.90;99.90
10276;DHT22;5183;51.190;6.820;2023-02-01T01:03:29;5.90;99.90
10276;DHT22;5183;51.190;6.820;2023-02-01T01:06:00;5.80;99.90
10276;DHT22;5183;51.190;6.820;2023-02-01T01:08:27;5.80;99.90
10276;DHT22;5183;51.190;6.820;2023-02-01T01:10:55;5.80;99.90
10276;DHT22;5183;51.190;6.820;2023-02-01T01:13:22;5.80;99.90
10276;DHT22;5183;51.190;6.820;2023-02-01T01:15:49;5.80;99.90
10276;DHT22;5183;51.190;6.820;2023-02-01T01:18:16;5.80;99.90
10276;DHT22;5183;51.190;6.820;2023-02-01T01:20:43;5.90;99.90
10276;DHT22;5183;51.190;6.820;2023-02-01T01:23:10;5.80;99.90
10276;DHT22;5183;51.190;6.820;2023-02-01T01:25:38;5.80;99.90
10276;DHT22;5183;51.190;6.820;2023-02-01T01:28:07;5.80;98.00
10276;DHT22;5183;51.190;6.820;2023-02-01T01:30:34;5.90;88.50
10276;DHT22;5183;51.190;6.820;2023-02-01T01:33:01;5.90;64.80
10276;DHT22;5183;51.190;6.820;2023-02-01T01:35:29;5.90;41.40
10276;DHT22;5183;51.190;6.820;2023-02-01T01:37:56;5.90;14.00
10276;DHT22;5183;51.190;6.820;2023-02-01T01:40:23;5.90;21.70
10276;DHT22;5183;51.190;6.820;2023-02-01T01:42:50;5.80;24.60
10276;DHT22;5183;51.190;6.820;2023-02-01T01:45:24;5.80;9.50
10276;DHT22;5183;51.190;6.820;2023-02-01T01:47:53;5.80;1.00
10276;DHT22;5183;51.190;6.820;2023-02-01T01:50:24;5.70;1.00
10276;DHT22;5183;51.190;6.820;2023-02-01T01:52:52;5.70;1.00
10276;DHT22;5183;51.190;6.820;2023-02-01T01:55:22;5.70;1.00
10276;DHT22;5183;51.190;6.820;2023-02-01T01:57:54;5.70;6.00
10276;DHT22;5183;51.190;6.820;2023-02-01T02:00:23;5.60;1.00
10276;DHT22;5183;51.190;6.820;2023-02-01T02:02:54;5.50;19.00
10276;DHT22;5183;51.190;6.820;2023-02-01T02:05:23;5.50;26.20
10276;DHT22;5183;51.190;6.820;2023-02-01T02:07:52;5.40;26.40
10276;DHT22;5183;51.190;6.820;2023-02-01T02:10:19;5.40;16.10
10276;DHT22;5183;51.190;6.820;2023-02-01T02:13:06;5.40;20.20
10276;DHT22;5183;51.190;6.820;2023-02-01T02:15:35;5.40;20.30
10276;DHT22;5183;51.190;6.820;2023-02-01T02:18:08;5.40;30.30
10276;DHT22;5183;51.190;6.820;2023-02-01T02:21:01;5.30;39.80
10276;DHT22;5183;51.190;6.820;2023-02-01T02:24:07;5.30;44.30
10276;DHT22;5183;51.190;6.820;2023-02-01T02:26:53;5.30;34.20
10276;DHT22;5183;51.190;6.820;2023-02-01T02:30:01;5.20;50.00
10276;DHT22;5183;51.190;6.820;2023-02-01T02:32:51;5.20;41.10
10276;DHT22;5183;51.190;6.820;2023-02-01T02:35:30;5.20;47.70
10276;DHT22;5183;51.190;6.820;2023-02-01T02:38:09;5.20;45.40
10276;DHT22;5183;51.190;6.820;2023-02-01T02:40:45;5.20;56.00
10276;DHT22;5183;51.190;6.820;2023-02-01T02:43:21;5.10;60.90
10276;DHT22;5183;51.190;6.820;2023-02-01T02:46:12;5.10;57.40
10276;DHT22;5183;51.190;6.820;2023-02-01T02:49:07;5.10;62.50
10276;DHT22;5183;51.190;6.820;2023-02-01T02:51:42;5.10;54.50
10276;DHT22;5183;51.190;6.820;2023-02-01T02:54:29;5.10;47.70
10276;DHT22;5183;51.190;6.820;2023-02-01T02:57:17;5.00;61.10
10276;DHT22;5183;51.190;6.820;2023-02-01T03:00:06;5.00;71.30
10276;DHT22;5183;51.190;6.820;2023-02-01T03:02:53;4.90;89.40
10276;DHT22;5183;51.190;6.820;2023-02-01T03:05:40;4.90;92.60
10276;DHT22;5183;51.190;6.820;2023-02-01T03:08:12;4.90;99.90
10276;DHT22;5183;51.190;6.820;2023-02-01T03:10:53;4.80;99.90
10276;DHT22;5183;51.190;6.820;2023-02-01T03:13:31;4.90;99.90
10276;DHT22;5183;51.190;6.820;2023-02-01T03:16:02;5.00;99.90
10276;DHT22;5183;51.190;6.820;2023-02-01T03:18:34;5.00;96.90
10276;DHT22;5183;51.190;6.820;2023-02-01T03:21:06;5.10;93.70
10276;DHT22;5183;51.190;6.820;2023-02-01T03:23:36;5.20;88.70
10276;DHT22;5183;51.190;6.820;2023-02-01T03:26:07;5.20;82.00
10276;DHT22;5183;51.190;6.820;2023-02-01T03:28:36;5.20;91.00
10276;DHT22;5183;51.190;6.820;2023-02-01T03:31:05;5.20;95.30
10276;DHT22;5183;51.190;6.820;2023-02-01T03:33:32;5.30;93.20
10276;DHT22;5183;51.190;6.820;2023-02-01T03:36:05;5.30;96.00
10276;DHT22;5183;51.190;6.820;2023-02-01T03:38:38;5.30;93.20
10276;DHT22;5183;51.190;6.820;2023-02-01T03:41:10;5.30;85.90
10276;DHT22;5183;51.190;6.820;2023-02-01T03:43:46;5.40;67.70
10276;DHT22;5183;51.190;6.820;2023-02-01T03:46:22;5.40;65.20
10276;DHT22;5183;51.190;6.820;2023-02-01T03:48:51;5.40;67.40
10276;DHT22;5183;51.190;6.820;2023-02-01T03:51:20;5.50;56.60
10276;DHT22;5183;51.190;6.820;2023-02-01T03:53:50;5.50;36.40
10276;DHT22;5183;51.190;6.820;2023-02-01T03:56:19;5.60;19.80
10276;DHT22;5183;51.190;6.820;2023-02-01T03:58:48;5.50;11.40
10276;DHT22;5183;51.190;6.820;2023-02-01T04:01:25;5.60;1.00
10276;DHT22;5183;51.190;6.820;2023-02-01T04:03:52;5.70;1.00
10276;DHT22;5183;51.190;6.820;2023-02-01T04:06:19;5.70;1.00
10276;DHT22;5183;51.190;6.820;2023-02-01T04:08:46;5.80;1.00
10276;DHT22;5183;51.190;6.820;2023-02-01T04:11:14;5.90;1.00
10276;DHT22;5183;51.190;6.820;2023-02-01T04:13:41;5.90;1.00
10276;DHT22;5183;51.190;6.820;2023-02-01T04:16:08;5.90;99.90
10276;DHT22;5183;51.190;6.820;2023-02-01T04:18:34;5.80;1.00
10276;DHT22;5183;51.190;6.820;2023-02-01T04:21:02;5.90;1.00
10276;DHT22;5183;51.190;6.820;2023-02-01T04:23:29;5.80;1.00
10276;DHT22;5183;51.190;6.820;2023-02-01T04:25:59;5.80;1.00
10276;DHT22;5183;51.190;6.820;2023-02-01T04:28:28;5.70;1.00
10276;DHT22;5183;51.190;6.820;2023-02-01T04:30:55;5.70;1.00
10276;DHT22;5183;51.190;6.820;2023-02-01T04:33:22;5.70;1.00
10276;DHT22;5183;51.190;6.820;2023-02-01T04:35:49;5.70;1.00
10276;DHT22;5183;51.190;6.820;2023-02-01T04:38:16;5.60;99.90
10276;DHT22;5183;51.190;6.820;2023-02-01T04:40:43;5.60;99.90
10276;DHT22;5183;51.190;6.820;2023-02-01T04:43:10;5.50;99.90
10276;DHT22;5183;51.190;6.820;2023-02-01T04:45:38;5.50;1.00
10276;DHT22;5183;51.190;6.820;2023-02-01T04:48:05;5.50;1.00
10276;DHT22;5183;51.190;6.820;2023-02-01T04:50:32;5.40;1.00
10276;DHT22;5183;51.190;6.820;2023-02-01T04:52:58;5.40;17.60
10276;DHT22;5183;51.190;6.820;2023-02-01T04:55:25;5.40;2.40
10276;DHT22;5183;51.190;6.820;2023-02-01T04:57:52;5.40;5.60
10276;DHT22;5183;51.190;6.820;2023-02-01T05:00:19;5.30;99.90
10276;DHT22;5183;51.190;6.820;2023-02-01T05:02:48;5.30;99.90
10276;DHT22;5183;51.190;6.820;2023-02-01T05:05:14;5.30;99.90
10276;DHT22;5183;51.190;6.820;2023-02-01T05:07:41;5.30;1.00
10276;DHT22;5183;51.190;6.820;2023-02-01T05:10:09;5.40;1.00
10276;DHT22;5183;51.190;6.820;2023-02-01T05:12:36;5.40;1.00
10276;DHT22;5183;51.190;6.820;2023-02-01T05:15:20;5.30;1.00
10276;DHT22;5183;51.190;6.820;2023-02-01T05:17:48;5.40;1.00
10276;DHT22;5183;51.190;6.820;2023-02-01T05:20:15;5.40;99.90
10276;DHT22;5183;51.190;6.820;2023-02-01T05:22:42;5.40;1.00
10276;DHT22;5183;51.190;6.820;2023-02-01T05:25:09;5.30;1.00
10276;DHT22;5183;51.190;6.820;2023-02-01T05:27:36;5.30;1.00
10276;DHT22;5183;51.190;6.820;2023-02-01T05:30:04;5.20;1.00
10276;DHT22;5183;51.190;6.820;2023-02-01T05:32:31;5.10;12.60
10276;DHT22;5183;51.190;6.820;2023-02-01T05:35:00;5.10;99.90
10276;DHT22;5183;51.190;6.820;2023-02-01T05:37:27;5.20;1.00
10276;DHT22;5183;51.190;6.820;2023-02-01T05:39:54;5.20;1.00
10276;DHT22;5183;51.190;6.820;2023-02-01T05:42:20;5.30;1.00
10276;DHT22;5183;51.190;6.820;2023-02-01T05:44:47;5.20;1.00
10276;DHT22;5183;51.190;6.820;2023-02-01T05:47:14;5.20;1.00
10276;DHT22;5183;51.190;6.820;2023-02-01T05:49:41;5.20;1.00
10276;DHT22;5183;51.190;6.820;2023-02-01T05:52:09;5.20;1.00
10276;DHT22;5183;51.190;6.820;2023-02-01T05:54:36;5.20;1.00
10276;DHT22;5183;51.190;6.820;2023-02-01T05:57:03;5.20;1.00
10276;DHT22;5183;51.190;6.820;2023-02-01T05:59:29;5.10;1.00
10276;DHT22;5183;51.190;6.820;2023-02-01T06:01:56;5.10;1.00
10276;DHT22;5183;51.190;6.820;2023-02-01T06:04:23;5.10;1.00
10276;DHT22;5183;51.190;6.820;2023-02-01T06:06:50;5.10;1.00
10276;DHT22;5183;51.190;6.820;2023-02-01T06:09:18;5.10;99.90
10276;DHT22;5183;51.190;6.820;2023-02-01T06:11:45;5.00;99.90
10276;DHT22;5183;51.190;6.820;2023-02-01T06:14:12;5.00;99.90
10276;DHT22;5183;51.190;6.820;2023-02-01T06:16:38;4.90;99.90
10276;DHT22;5183;51.190;6.820;2023-02-01T06:19:05;4.90;99.90
10276;DHT22;5183;51.190;6.820;2023-02-01T06:21:32;5.00;99.90
10276;DHT22;5183;51.190;6.820;2023-02-01T06:23:59;5.10;99.90
10276;DHT22;5183;51.190;6.820;2023-02-01T06:26:27;5.10;1.00
10276;DHT22;5183;51.190;6.820;2023-02-01T06:28:55;5.20;1.00
10276;DHT22;5183;51.190;6.820;2023-02-01T06:31:22;5.30;99.90
10276;DHT22;5183;51.190;6.820;2023-02-01T06:33:51;5.30;99.90
10276;DHT22;5183;51.190;6.820;2023-02-01T06:36:19;5.40;1.00
10276;DHT22;5183;51.190;6.820;2023-02-01T06:38:47;5.50;1.00
10276;DHT22;5183;51.190;6.820;2023-02-01T06:41:14;5.50;1.00
10276;DHT22;5183;51.190;6.820;2023-02-01T06:43:42;5.40;1.00
10276;DHT22;5183;51.190;6.820;2023-02-01T06:46:11;5.40;1.00
10276;DHT22;5183;51.190;6.820;2023-02-01T06:48:39;5.50;1.00
10276;DHT22;5183;51.190;6.820;2023-02-01T06:51:06;5.60;1.00
10276;DHT22;5183;51.190;6.820;2023-02-01T06:53:33;5.60;1.00
10276;DHT22;5183;51.190;6.820;2023-02-01T06:56:02;5.50;1.00
10276;DHT22;5183;51.190;6.820;2023-02-01T06:58:30;5.60;1.00
10276;DHT22;5183;51.190;6.820;2023-02-01T07:01:03;5.50;1.00
10276;DHT22;5183;51.190;6.820;2023-02-01T07:03:30;5.50;1.00
10276;DHT22;5183;51.190;6.820;2023-02-01T07:05:57;5.50;1.00
10276;DHT22;5183;51.190;6.820;2023-02-01T07:08:25;5.50;1.00
10276;DHT22;5183;51.190;6.820;2023-02-01T07:10:51;5.50;1.00
10276;DHT22;5183;51.190;6.820;2023-02-01T07:13:18;5.60;1.00
10276;DHT22;5183;51.190;6.820;2023-02-01T07:15:45;5.60;1.00
10276;DHT22;5183;51.190;6.820;2023-02-01T07:18:14;5.70;99.90
10276;DHT22;5183;51.190;6.820;2023-02-01T07:20:42;5.70;99.90
10276;DHT22;5183;51.190;6.820;2023-02-01T07:23:09;5.70;99.90
10276;DHT22;5183;51.190;6.820;2023-02-01T07:25:36;5.70;99.90
10276;DHT22;5183;51.190;6.820;2023-02-01T07:28:03;5.70;1.00
10276;DHT22;5183;51.190;6.820;2023-02-01T07:30:30;5.70;1.00
10276;DHT22;5183;51.190;6.820;2023-02-01T07:32:57;5.70;99.90
10276;DHT22;5183;51.190;6.820;2023-02-01T07:35:28;5.70;1.00
10276;DHT22;5183;51.190;6.820;2023-02-01T07:37:55;5.70;1.00
10276;DHT22;5183;51.190;6.820;2023-02-01T07:40:23;5.80;99.90
10276;DHT22;5183;51.190;6.820;2023-02-01T07:42:54;5.80;99.90
10276;DHT22;5183;51.190;6.820;2023-02-01T07:45:21;5.80;99.90
10276;DHT22;5183;51.190;6.820;2023-02-01T07:47:48;5.80;99.90
10276;DHT22;5183;51.190;6.820;2023-02-01T07:50:15;5.80;99.90
10276;DHT22;5183;51.190;6.820;2023-02-01T07:52:44;5.80;80.10
10276;DHT22;5183;51.190;6.820;2023-02-01T07:55:10;5.90;1.00
10276;DHT22;5183;51.190;6.820;2023-02-01T07:57:37;5.90;1.00
10276;DHT22;5183;51.190;6.820;2023-02-01T08:00:05;5.90;1.00
10276;DHT22;5183;51.190;6.820;2023-02-01T08:02:49;5.90;1.00
10276;DHT22;5183;51.190;6.820;2023-02-01T08:05:16;5.90;81.50
10276;DHT22;5183;51.190;6.820;2023-02-01T08:07:48;5.90;1.00
10276;DHT22;5183;51.190;6.820;2023-02-01T08:10:16;5.90;1.00
10276;DHT22;5183;51.190;6.820;2023-02-01T08:12:43;5.90;52.30
10276;DHT22;5183;51.190;6.820;2023-02-01T08:15:13;5.80;99.90
10276;DHT22;5183;51.190;6.820;2023-02-01T08:17:40;5.90;99.90
10276;DHT22;5183;51.190;6.820;2023-02-01T08:20:12;5.90;99.90
10276;DHT22;5183;51.190;6.820;2023-02-01T08:22:39;5.90;99.90
10276;DHT22;5183;51.190;6.820;2023-02-01T08:25:08;5.90;95.70
10276;DHT22;5183;51.190;6.820;2023-02-01T08:27:35;6.00;1.00
10276;DHT22;5183;51.190;6.820;2023-02-01T08:30:03;5.90;52.30
10276;DHT22;5183;51.190;6.820;2023-02-01T08:32:30;5.90;1.00
10276;DHT22;5183;51.190;6.820;2023-02-01T08:34:57;6.00;9.40
10276;DHT22;5183;51.190;6.820;2023-02-01T08:37:24;6.00;1.00
10276;DHT22;5183;51.190;6.820;2023-02-01T08:39:51;6.00;19.10
10276;DHT22;5183;51.190;6.820;2023-02-01T08:42:19;6.00;1.00
10276;DHT22;5183;51.190;6.820;2023-02-01T08:45:04;6.00;1.00
10276;DHT22;5183;51.190;6.820;2023-02-01T08:47:33;6.10;46.80
10276;DHT22;5183;51.190;6.820;2023-02-01T08:50:00;6.00;99.30
10276;DHT22;5183;51.190;6.820;2023-02-01T08:52:27;6.10;51.00
10276;DHT22;5183;51.190;6.820;2023-02-01T08:54:54;6.20;1.00
10276;DHT22;5183;51.190;6.820;2023-02-01T08:57:22;6.20;99.90
10276;DHT22;5183;51.190;6.820;2023-02-01T08:59:49;6.20;99.90
10276;DHT22;5183;51.190;6.820;2023-02-01T09:02:18;6.30;1.00
10276;DHT22;5183;51.190;6.820;2023-02-01T09:04:45;6.30;1.00
10276;DHT22;5183;51.190;6.820;2023-02-01T09:07:12;6.30;1.00
10276;DHT22;5183;51.190;6.820;2023-02-01T09:09:39;6.40;99.90
10276;DHT22;5183;51.190;6.820;2023-02-01T09:12:06;6.40;1.00
10276;DHT22;5183;51.190;6.820;2023-02-01T09:14:34;6.40;99.90
10276;DHT22;5183;51.190;6.820;2023-02-01T09:17:01;6.40;99.90
10276;DHT22;5183;51.190;6.820;2023-02-01T09:19:28;6.40;99.90
10276;DHT22;5183;51.190;6.820;2023-02-01T09:21:55;6.40;57.40
10276;DHT22;5183;51.190;6.820;2023-02-01T09:24:22;6.30;99.90
10276;DHT22;5183;51.190;6.820;2023-02-01T09:26:49;6.30;63.20
10276;DHT22;5183;51.190;6.820;2023-02-01T09:29:15;6.30;1.00
10276;DHT22;5183;51.190;6.820;2023-02-01T09:31:44;6.30;1.00
10276;DHT22;5183;51.190;6.820;2023-02-01T09:34:11;6.40;1.00
10276;DHT22;5183;51.190;6.820;2023-02-01T09:36:38;6.40;1.00
10276;DHT22;5183;51.190;6.820;2023-02-01T09:39:04;6.40;1.00
10276;DHT22;5183;51.190;6.820;2023-02-01T09:41:39;6.50;1.00
10276;DHT22;5183;51.190;6.820;2023-02-01T09:44:16;6.50;1.00
10276;DHT22;5183;51.190;6.820;2023-02-01T09:46:47;6.50;1.00
10276;DHT22;5183;51.190;6.820;2023-02-01T09:49:19;6.50;1.00
10276;DHT22;5183;51.190;6.820;2023-02-01T09:51:49;6.40;50.00
10276;DHT22;5183;51.190;6.820;2023-02-01T09:54:20;6.40;99.90
10276;DHT22;5183;51.190;6.820;2023-02-01T09:56:51;6.30;1.00
10276;DHT22;5183;51.190;6.820;2023-02-01T09:59:29;6.20;1.00
10276;DHT22;5183;51.190;6.820;2023-02-01T10:01:58;6.20;66.00
10276;DHT22;5183;51.190;6.820;2023-02-01T10:04:26;6.20;99.90
10276;DHT22;5183;51.190;6.820;2023-02-01T10:07:01;6.20;1.00
10276;DHT22;5183;51.190;6.820;2023-02-01T10:09:42;6.20;99.90
10276;DHT22;5183;51.190;6.820;2023-02-01T10:15:20;6.20;99.90
10276;DHT22;5183;51.190;6.820;2023-02-01T10:17:59;6.20;98.70
10276;DHT22;5183;51.190;6.820;2023-02-01T10:20:34;6.20;1.00
10276;DHT22;5183;51.190;6.820;2023-02-01T10:23:25;6.20;1.00
10276;DHT22;5183;51.190;6.820;2023-02-01T10:26:01;6.20;1.00
10276;DHT22;5183;51.190;6.820;2023-02-01T10:28:34;6.30;1.00
10276;DHT22;5183;51.190;6.820;2023-02-01T10:31:04;6.40;1.00
10276;DHT22;5183;51.190;6.820;2023-02-01T10:33:34;6.50;99.90
10276;DHT22;5183;51.190;6.820;2023-02-01T10:36:05;6.60;96.90
10276;DHT22;5183;51.190;6.820;2023-02-01T10:38:35;6.70;1.00
10276;DHT22;5183;51.190;6.820;2023-02-01T10:41:12;6.70;1.00
10276;DHT22;5183;51.190;6.820;2023-02-01T10:43:39;6.70;1.00
10276;DHT22;5183;51.190;6.820;2023-02-01T10:46:07;6.80;99.90
10276;DHT22;5183;51.190;6.820;2023-02-01T10:48:36;6.70;99.90
10276;DHT22;5183;51.190;6.820;2023-02-01T10:51:07;6.70;99.90
10276;DHT22;5183;51.190;6.820;2023-02-01T10:53:41;6.70;1.00
10276;DHT22;5183;51.190;6.820;2023-02-01T10:56:11;6.70;1.00
10276;DHT22;5183;51.190;6.820;2023-02-01T10:58:43;6.60;1.00
10276;DHT22;5183;51.190;6.820;2023-02-01T11:01:16;6.60;1.00
10276;DHT22;5183;51.190;6.820;2023-02-01T11:03:52;6.60;1.00
10276;DHT22;5183;51.190;6.820;2023-02-01T11:06:26;6.70;1.00
10276;DHT22;5183;51.190;6.820;2023-02-01T11:08:54;6.60;1.00
10276;DHT22;5183;51.190;6.820;2023-02-01T11:11:22;6.70;99.90
10276;DHT22;5183;51.190;6.820;2023-02-01T11:13:54;6.80;1.00
10276;DHT22;5183;51.190;6.820;2023-02-01T11:16:29;6.80;99.90
10276;DHT22;5183;51.190;6.820;2023-02-01T11:18:58;6.80;99.90
10276;DHT22;5183;51.190;6.820;2023-02-01T11:21:26;6.80;99.90
10276;DHT22;5183;51.190;6.820;2023-02-01T11:23:53;6.80;1.00
10276;DHT22;5183;51.190;6.820;2023-02-01T11:26:22;6.80;1.00
10276;DHT22;5183;51.190;6.820;2023-02-01T11:28:53;6.80;1.00
10276;DHT22;5183;51.190;6.820;2023-02-01T11:31:22;6.80;99.90
10276;DHT22;5183;51.190;6.820;2023-02-01T11:33:52;7.00;99.90
10276;DHT22;5183;51.190;6.820;2023-02-01T11:36:24;6.90;99.90
10276;DHT22;5183;51.190;6.820;2023-02-01T11:38:54;6.90;99.90
10276;DHT22;5183;51.190;6.820;2023-02-01T11:41:33;7.00;99.90
10276;DHT22;5183;51.190;6.820;2023-02-01T11:44:01;7.00;99.90
10276;DHT22;5183;51.190;6.820;2023-02-01T11:46:30;7.10;99.90
10276;DHT22;5183;51.190;6.820;2023-02-01T11:49:13;7.10;1.00
10276;DHT22;5183;51.190;6.820;2023-02-01T11:51:49;7.20;5.50
10276;DHT22;5183;51.190;6.820;2023-02-01T11:54:30;7.20;4.60
10276;DHT22;5183;51.190;6.820;2023-02-01T11:57:17;7.30;1.00
10276;DHT22;5183;51.190;6.820;2023-02-01T12:00:07;7.30;1.00
10276;DHT22;5183;51.190;6.820;2023-02-01T12:02:57;7.40;1.00
10276;DHT22;5183;51.190;6.820;2023-02-01T12:05:46;7.40;1.00
10276;DHT22;5183;51.190;6.820;2023-02-01T12:11:21;7.50;99.90
10276;DHT22;5183;51.190;6.820;2023-02-01T12:13:58;7.50;1.00
10276;DHT22;5183;51.190;6.820;2023-02-01T12:16:34;7.50;99.90
10276;DHT22;5183;51.190;6.820;2023-02-01T12:19:18;7.60;99.90
10276;DHT22;5183;51.190;6.820;2023-02-01T12:22:17;7.60;99.90
10276;DHT22;5183;51.190;6.820;2023-02-01T12:25:15;7.70;99.90
10276;DHT22;5183;51.190;6.820;2023-02-01T12:33:51;7.20;1.00
10276;DHT22;5183;51.190;6.820;2023-02-01T12:36:25;7.60;1.00
10276;DHT22;5183;51.190;6.820;2023-02-01T12:39:02;7.50;1.00
10276;DHT22;5183;51.190;6.820;2023-02-01T12:41:49;7.50;1.00
10276;DHT22;5183;51.190;6.820;2023-02-01T12:44:28;7.50;1.00
10276;DHT22;5183;51.190;6.820;2023-02-01T12:46:59;7.50;1.00
10276;DHT22;5183;51.190;6.820;2023-02-01T12:49:37;7.50;1.00
10276;DHT22;5183;51.190;6.820;2023-02-01T12:52:10;7.50;1.00
10276;DHT22;5183;51.190;6.820;2023-02-01T12:54:41;7.40;1.00
10276;DHT22;5183;51.190;6.820;2023-02-01T12:57:15;7.40;1.00
10276;DHT22;5183;51.190;6.820;2023-02-01T12:59:48;7.40;1.00
10276;DHT22;5183;51.190;6.820;2023-02-01T13:02:19;7.50;1.00
10276;DHT22;5183;51.190;6.820;2023-02-01T13:04:57;7.60;1.00
10276;DHT22;5183;51.190;6.820;2023-02-01T13:07:30;7.50;1.00
10276;DHT22;5183;51.190;6.820;2023-02-01T13:10:03;7.50;1.00
10276;DHT22;5183;51.190;6.820;2023-02-01T13:12:37;7.50;1.00
10276;DHT22;5183;51.190;6.820;2023-02-01T13:15:12;7.50;1.00
10276;DHT22;5183;51.190;6.820;2023-02-01T13:17:43;7.60;1.00
10276;DHT22;5183;51.190;6.820;2023-02-01T13:20:19;7.60;1.00
10276;DHT22;5183;51.190;6.820;2023-02-01T13:22:51;7.60;1.00
10276;DHT22;5183;51.190;6.820;2023-02-01T13:25:27;7.60;1.00
10276;DHT22;5183;51.190;6.820;2023-02-01T13:28:02;7.70;1.00
10276;DHT22;5183;51.190;6.820;2023-02-01T13:30:37;7.70;1.00
10276;DHT22;5183;51.190;6.820;2023-02-01T13:33:26;7.70;1.00
10276;DHT22;5183;51.190;6.820;2023-02-01T13:36:12;7.70;1.00
10276;DHT22;5183;51.190;6.820;2023-02-01T13:39:32;7.80;1.00
10276;DHT22;5183;51.190;6.820;2023-02-01T13:42:03;7.80;1.00
10276;DHT22;5183;51.190;6.820;2023-02-01T13:44:36;7.70;1.00
10276;DHT22;5183;51.190;6.820;2023-02-01T13:47:25;7.80;1.00
10276;DHT22;5183;51.190;6.820;2023-02-01T13:49:53;7.70;1.00
10276;DHT22;5183;51.190;6.820;2023-02-01T13:52:28;7.70;1.00
10276;DHT22;5183;51.190;6.820;2023-02-01T13:55:13;7.80;1.00
10276;DHT22;5183;51.190;6.820;2023-02-01T13:57:42;7.80;1.00
10276;DHT22;5183;51.190;6.820;2023-02-01T14:00:24;7.80;1.00
10276;DHT22;5183;51.190;6.820;2023-02-01T14:03:16;7.70;1.00
10276;DHT22;5183;51.190;6.820;2023-02-01T14:06:05;7.90;1.00
10276;DHT22;5183;51.190;6.820;2023-02-01T14:09:05;7.90;1.00
10276;DHT22;5183;51.190;6.820;2023-02-01T14:11:42;7.90;1.00
10276;DHT22;5183;51.190;6.820;2023-02-01T14:14:43;8.00;1.00
10276;DHT22;5183;51.190;6.820;2023-02-01T14:17:36;8.00;1.00
10276;DHT22;5183;51.190;6.820;2023-02-01T14:23:25;8.00;1.00
10276;DHT22;5183;51.190;6.820;2023-02-01T14:26:10;8.00;1.00
10276;DHT22;5183;51.190;6.820;2023-02-01T14:28:42;7.90;1.00
10276;DHT22;5183;51.190;6.820;2023-02-01T14:34:10;8.00;1.00
10276;DHT22;5183;51.190;6.820;2023-02-01T14:36:44;8.00;1.00
10276;DHT22;5183;51.190;6.820;2023-02-01T14:39:37;8.10;1.00
10276;DHT22;5183;51.190;6.820;2023-02-01T14:42:18;8.00;99.90
10276;DHT22;5183;51.190;6.820;2023-02-01T14:44:47;8.00;1.00
10276;DHT22;5183;51.190;6.820;2023-02-01T14:47:32;8.10;1.00
10276;DHT22;5183;51.190;6.820;2023-02-01T14:53:16;8.10;99.90
10276;DHT22;5183;51.190;6.820;2023-02-01T14:55:47;8.20;99.90
10276;DHT22;5183;51.190;6.820;2023-02-01T14:58:19;8.20;99.90
10276;DHT22;5183;51.190;6.820;2023-02-01T15:00:52;8.20;99.90
10276;DHT22;5183;51.190;6.820;2023-02-01T15:03:33;8.20;99.90
10276;DHT22;5183;51.190;6.820;2023-02-01T15:06:03;8.20;99.90
10276;DHT22;5183;51.190;6.820;2023-02-01T15:08:37;8.20;99.90
10276;DHT22;5183;51.190;6.820;2023-02-01T15:11:14;8.30;99.90
10276;DHT22;5183;51.190;6.820;2023-02-01T15:13:48;8.20;99.90
10276;DHT22;5183;51.190;6.820;2023-02-01T15:16:16;8.20;99.90
10276;DHT22;5183;51.190;6.820;2023-02-01T15:18:43;8.20;99.90
10276;DHT22;5183;51.190;6.820;2023-02-01T15:21:17;8.20;99.90
10276;DHT22;5183;51.190;6.820;2023-02-01T15:23:45;8.20;99.90
10276;DHT22;5183;51.190;6.820;2023-02-01T15:26:24;8.20;99.90
10276;DHT22;5183;51.190;6.820;2023-02-01T15:28:51;8.20;99.90
10276;DHT22;5183;51.190;6.820;2023-02-01T15:31:32;8.20;99.90
10276;DHT22;5183;51.190;6.820;2023-02-01T15:33:59;8.20;99.90
10276;DHT22;5183;51.190;6.820;2023-02-01T15:36:27;8.20;99.90
10276;DHT22;5183;51.190;6.820;2023-02-01T15:39:16;8.20;99.90
10276;DHT22;5183;51.190;6.820;2023-02-01T15:41:47;8.20;99.90
10276;DHT22;5183;51.190;6.820;2023-02-01T15:44:20;8.10;99.90
10276;DHT22;5183;51.190;6.820;2023-02-01T15:46:49;8.10;99.90
10276;DHT22;5183;51.190;6.820;2023-02-01T15:49:20;8.10;99.90
10276;DHT22;5183;51.190;6.820;2023-02-01T15:51:51;8.10;99.90
10276;DHT22;5183;51.190;6.820;2023-02-01T15:54:20;8.10;99.90
10276;DHT22;5183;51.190;6.820;2023-02-01T15:56:51;8.00;99.90
10276;DHT22;5183;51.190;6.820;2023-02-01T15:59:21;8.00;1.00
10276;DHT22;5183;51.190;6.820;2023-02-01T16:01:49;8.00;1.00
10276;DHT22;5183;51.190;6.820;2023-02-01T16:04:19;8.00;1.00
10276;DHT22;5183;51.190;6.820;2023-02-01T16:06:50;8.00;99.90
10276;DHT22;5183;51.190;6.820;2023-02-01T16:09:18;8.10;1.00
10276;DHT22;5183;51.190;6.820;2023-02-01T16:11:54;8.00;1.00
10276;DHT22;5183;51.190;6.820;2023-02-01T16:14:21;8.00;1.00
10276;DHT22;5183;51.190;6.820;2023-02-01T16:16:48;8.00;1.00
10276;DHT22;5183;51.190;6.820;2023-02-01T16:19:15;8.00;1.00
10276;DHT22;5183;51.190;6.820;2023-02-01T16:21:42;8.00;1.00
10276;DHT22;5183;51.190;6.820;2023-02-01T16:24:10;8.00;1.00
10276;DHT22;5183;51.190;6.820;2023-02-01T16:26:37;8.00;1.00
10276;DHT22;5183;51.190;6.820;2023-02-01T16:29:05;8.00;1.00
10276;DHT22;5183;51.190;6.820;2023-02-01T16:31:34;8.00;1.00
10276;DHT22;5183;51.190;6.820;2023-02-01T16:34:02;8.00;1.00
10276;DHT22;5183;51.190;6.820;2023-02-01T16:36:30;7.90;1.00
10276;DHT22;5183;51.190;6.820;2023-02-01T16:38:57;8.00;64.90
10276;DHT22;5183;51.190;6.820;2023-02-01T16:41:26;7.90;1.00
10276;DHT22;5183;51.190;6.820;2023-02-01T16:43:54;7.90;1.00
10276;DHT22;5183;51.190;6.820;2023-02-01T16:46:23;7.80;1.00
10276;DHT22;5183;51.190;6.820;2023-02-01T16:48:53;7.90;1.00
10276;DHT22;5183;51.190;6.820;2023-02-01T16:51:20;7.90;1.00
10276;DHT22;5183;51.190;6.820;2023-02-01T16:53:48;7.90;1.00
10276;DHT22;5183;51.190;6.820;2023-02-01T16:56:16;7.90;1.00
10276;DHT22;5183;51.190;6.820;2023-02-01T16:58:45;7.80;1.00
10276;DHT22;5183;51.190;6.820;2023-02-01T17:01:14;7.80;1.00